Time;durP1;ratioP1;P1;durP2;ratioP2;P2;SDS_P1;SDS_P2;PMS_P1;PMS_P2;Temp;Humidity;BMP_temperature;BMP_pressure;BME280_temperature;BME280_humidity;BME280_pressure;Samples;Min_cycle;Max_cycle;Signal;HPM_P1;HPM_P2
2023/03/04 00:00:10;;;;;;;11.30;3.13;;;;;;;;;;5014003;28;20517;-67
2023/03/04 00:02:36;;;;;;;13.65;2.75;;;;;;;;;;5028715;28;20048;-66
2023/03/04 00:05:02;;;;;;;13.98;3.60;;;;;;;;;;5027436;28;20188;-67
2023/03/04 00:07:28;;;;;;;13.77;2.58;;;;;;;;;;5026620;28;20541;-66
2023/03/04 00:09:54;;;;;;;20.80;3.22;;;;;;;;;;5024746;28;20045;-67
2023/03/04 00:12:20;;;;;;;14.13;2.50;;;;;;;;;;5027630;28;20108;-67
2023/03/04 00:14:46;;;;;;;14.48;2.65;;;6.50;99.90;;;;;;5011258;28;20116;-67
2023/03/04 00:17:12;;;;;;;16.55;2.80;;;;;;;;;;5012085;28;20215;-66
2023/03/04 00:19:38;;;;;;;16.65;2.70;;;;;;;;;;5027244;28;20808;-67
2023/03/04 00:22:04;;;;;;;14.73;3.20;;;;;;;;;;5012460;28;20049;-66
2023/03/04 00:24:30;;;;;;;13.55;2.65;;;;;;;;;;5007212;28;20073;-67
2023/03/04 00:26:56;;;;;;;11.77;2.75;;;6.50;99.90;;;;;;5027649;28;20045;-66
2023/03/04 00:29:21;;;;;;;11.68;2.95;;;6.40;99.90;;;;;;5011597;28;20041;-67
2023/03/04 00:31:47;;;;;;;13.75;4.32;;;;;;;;;;5027883;28;20041;-67
2023/03/04 00:34:13;;;;;;;14.10;3.17;;;;;;;;;;5027464;28;20044;-67
2023/03/04 00:36:39;;;;;;;10.30;3.20;;;;;;;;;;5027908;28;20050;-67
2023/03/04 00:39:05;;;;;;;14.82;2.95;;;;;;;;;;5027014;28;20118;-67
2023/03/04 00:41:31;;;;;;;13.93;2.75;;;;;;;;;;5027738;28;20491;-66
2023/03/04 00:43:57;;;;;;;15.80;3.35;;;;;;;;;;5009134;28;20127;-66
2023/03/04 00:46:23;;;;;;;9.63;3.30;;;;;;;;;;5027466;28;20041;-67
2023/03/04 00:48:49;;;;;;;17.35;3.10;;;;;;;;;;5024104;28;20037;-67
2023/03/04 00:51:15;;;;;;;10.63;2.72;;;;;;;;;;5024759;28;20049;-67
2023/03/04 00:53:41;;;;;;;14.50;2.70;;;;;;;;;;5009307;28;20049;-66
2023/03/04 00:56:07;;;;;;;15.65;3.92;;;6.50;99.90;;;;;;5009262;28;20075;-67
2023/03/04 00:58:32;;;;;;;11.40;2.67;;;6.50;99.90;;;;;;5008868;28;20048;-67
2023/03/04 01:00:58;;;;;;;17.25;2.70;;;;;;;;;;5026881;28;20064;-67
2023/03/04 01:03:25;;;;;;;21.05;4.35;;;;;;;;;;5026675;28;20088;-67
2023/03/04 01:05:51;;;;;;;17.35;2.75;;;;;;;;;;5026888;28;20052;-67
2023/03/04 01:08:17;;;;;;;16.05;2.97;;;6.50;99.90;;;;;;5026577;28;20041;-67
2023/03/04 01:10:42;;;;;;;12.27;2.70;;;6.60;99.90;;;;;;5008407;28;20507;-67
2023/03/04 01:13:08;;;;;;;11.82;2.40;;;;;;;;;;5008352;28;20770;-66
2023/03/04 01:15:34;;;;;;;10.27;2.70;;;;;;;;;;5007669;28;20061;-67
2023/03/04 01:18:00;;;;;;;15.77;2.65;;;;;;;;;;5005262;28;20041;-67
2023/03/04 01:20:26;;;;;;;9.52;2.40;;;;;;;;;;5008236;28;20841;-67
2023/03/04 01:22:52;;;;;;;13.32;2.85;;;;;;;;;;5026433;28;20060;-66
2023/03/04 01:25:18;;;;;;;11.45;2.63;;;6.50;99.90;;;;;;5026080;28;20042;-67
2023/03/04 01:27:44;;;;;;;15.18;3.03;;;;;;;;;;5024176;28;20034;-67
2023/03/04 01:30:10;;;;;;;13.77;3.33;;;;;;;;;;5005212;28;20045;-66
2023/03/04 01:32:36;;;;;;;11.57;2.45;;;;;;;;;;5008018;28;20486;-66
2023/03/04 01:35:02;;;;;;;15.45;3.40;;;;;;;;;;5026292;28;20094;-66
2023/03/04 01:37:28;;;;;;;19.83;2.90;;;6.60;99.90;;;;;;5001276;28;20399;-66
2023/03/04 01:39:53;;;;;;;13.80;2.42;;;6.50;99.90;;;;;;5005458;28;20048;-66
2023/03/04 01:42:21;;;;;;;13.50;3.25;;;;;;;;;;5007789;28;20426;-67
2023/03/04 01:44:47;;;;;;;10.77;2.28;;;;;;;;;;5025763;28;20051;-67
2023/03/04 01:47:13;;;;;;;12.77;3.20;;;;;;;;;;5007926;28;20231;-66
2023/03/04 01:49:39;;;;;;;9.55;2.42;;;;;;;;;;5020571;28;20064;-67
2023/03/04 01:52:09;;;;;;;9.98;2.08;;;;;;;;;;5024701;28;20060;-66
2023/03/04 01:54:35;;;;;;;10.05;1.80;;;;;;;;;;5025703;28;20107;-66
2023/03/04 01:57:02;;;;;;;15.43;2.72;;;;;;;;;;5022187;28;20053;-67
2023/03/04 01:59:30;;;;;;;16.15;2.70;;;;;;;;;;5024098;28;20045;-67
2023/03/04 02:01:58;;;;;;;10.65;2.50;;;;;;;;;;5005996;28;20043;-67
2023/03/04 02:04:25;;;;;;;14.85;3.70;;;;;;;;;;5005113;28;20498;-67
2023/03/04 02:06:51;;;;;;;14.05;2.08;;;;;;;;;;5025265;28;20120;-66
2023/03/04 02:09:18;;;;;;;8.52;2.28;;;;;;;;;;5007976;28;20052;-67
2023/03/04 02:11:45;;;;;;;12.10;2.35;;;;;;;;;;5007928;28;20498;-67
2023/03/04 02:14:12;;;;;;;13.35;2.63;;;;;;;;;;5007523;28;20133;-67
2023/03/04 02:16:38;;;;;;;9.43;2.08;;;;;;;;;;5002959;28;20052;-66
2023/03/04 02:19:06;;;;;;;12.63;2.10;;;;;;;;;;5007534;28;20065;-67
2023/03/04 02:21:33;;;;;;;13.75;2.60;;;;;;;;;;5025332;28;20899;-67
2023/03/04 02:24:02;;;;;;;12.27;2.10;;;;;;;;;;5025251;28;20041;-66
2023/03/04 02:26:30;;;;;;;9.65;2.63;;;6.60;99.90;;;;;;5017961;28;20061;-66
2023/03/04 02:28:57;;;;;;;13.23;2.42;;;;;;;;;;5016773;28;20043;-67
2023/03/04 02:31:39;;;;;;;10.27;2.38;;;;;;;;;;5023330;28;20041;-67
2023/03/04 02:34:06;;;;;;;12.00;3.05;;;;;;;;;;5007175;28;20037;-67
2023/03/04 02:36:32;;;;;;;13.23;2.30;;;;;;;;;;5025653;28;20111;-66
2023/03/04 02:39:03;;;;;;;13.82;2.28;;;;;;;;;;5002389;28;20048;-66
2023/03/04 02:41:29;;;;;;;13.27;2.33;;;6.60;99.90;;;;;;5023595;28;20114;-66
2023/03/04 02:43:55;;;;;;;10.65;2.55;;;;;;;;;;5025096;28;20439;-67
2023/03/04 02:46:22;;;;;;;8.73;2.20;;;;;;;;;;5025145;28;20510;-66
2023/03/04 02:48:49;;;;;;;12.90;2.40;;;;;;;;;;5025237;28;20103;-66
2023/03/04 02:51:15;;;;;;;17.33;2.35;;;;;;;;;;5005657;28;20053;-67
2023/03/04 02:53:41;;;;;;;9.40;2.67;;;;;;;;;;5004362;28;20507;-67
2023/03/04 02:56:07;;;;;;;12.20;3.47;;;;;;;;;;5005538;28;20132;-67
2023/03/04 02:58:33;;;;;;;15.48;3.20;;;;;;;;;;5021840;28;20233;-67
2023/03/04 03:00:59;;;;;;;13.90;3.25;;;;;;;;;;5004713;28;20046;-67
2023/03/04 03:03:25;;;;;;;11.70;2.25;;;6.10;99.90;;;;;;5024633;28;20052;-66
2023/03/04 03:05:51;;;;;;;10.90;2.35;;;;;;;;;;5007300;28;20045;-66
2023/03/04 03:08:17;;;;;;;13.32;3.17;;;;;;;;;;5007026;28;20049;-66
2023/03/04 03:10:43;;;;;;;12.40;2.50;;;;;;;;;;5024931;28;20048;-67
2023/03/04 03:13:09;;;;;;;14.23;3.75;;;;;;;;;;5025189;28;20051;-66
2023/03/04 03:15:37;;;;;;;11.85;2.45;;;;;;;;;;5024763;28;20045;-66
2023/03/04 03:18:03;;;;;;;10.48;2.60;;;;;;;;;;5003852;28;20116;-66
2023/03/04 03:20:29;;;;;;;11.70;2.30;;;;;;;;;;5022169;28;21063;-67
2023/03/04 03:22:55;;;;;;;11.18;2.05;;;;;;;;;;5007421;28;20053;-67
2023/03/04 03:25:21;;;;;;;15.80;3.67;;;;;;;;;;5007421;28;20113;-67
2023/03/04 03:27:47;;;;;;;14.52;2.70;;;;;;;;;;5016644;28;20479;-66
2023/03/04 03:30:14;;;;;;;14.27;3.00;;;;;;;;;;5021407;28;20075;-67
2023/03/04 03:32:40;;;;;;;17.20;2.53;;;;;;;;;;5023591;28;20046;-67
2023/03/04 03:35:06;;;;;;;15.65;2.25;;;;;;;;;;5007067;28;20123;-67
2023/03/04 03:37:32;;;;;;;10.57;2.08;;;;;;;;;;5016515;28;20700;-67
2023/03/04 03:39:58;;;;;;;11.25;2.45;;;;;;;;;;5006790;28;20119;-67
2023/03/04 03:42:24;;;;;;;15.10;3.50;;;;;;;;;;5020569;28;20045;-66
2023/03/04 03:44:50;;;;;;;12.32;2.70;;;;;;;;;;5017676;28;20037;-66
2023/03/04 03:47:16;;;;;;;8.45;2.33;;;;;;;;;;5000414;28;20101;-66
2023/03/04 03:49:42;;;;;;;10.10;2.17;;;;;;;;;;5024969;28;20484;-67
2023/03/04 03:52:08;;;;;;;7.15;1.83;;;;;;;;;;5009465;28;20053;-68
2023/03/04 03:54:35;;;;;;;14.00;2.72;;;;;;;;;;5009997;28;20053;-67
2023/03/04 03:57:01;;;;;;;15.25;2.33;;;;;;;;;;5010317;28;20142;-67
2023/03/04 03:59:27;;;;;;;10.32;2.40;;;;;;;;;;5023091;28;20128;-66
2023/03/04 04:01:53;;;;;;;16.15;2.85;;;;;;;;;;5024584;28;20048;-67
2023/03/04 04:04:19;;;;;;;11.15;2.90;;;;;;;;;;5007546;28;20048;-67
2023/03/04 04:06:45;;;;;;;15.57;3.28;;;;;;;;;;5010248;28;20049;-66
2023/03/04 04:09:11;;;;;;;12.60;2.72;;;;;;;;;;5006094;28;20084;-67
2023/03/04 04:11:37;;;;;;;12.13;2.20;;;;;;;;;;5026514;28;20157;-66
2023/03/04 04:14:03;;;;;;;10.35;2.80;;;;;;;;;;5027217;28;20047;-67
2023/03/04 04:16:30;;;;;;;8.77;2.47;;;;;;;;;;5006822;28;20053;-67
2023/03/04 04:18:55;;;;;;;13.30;2.45;;;6.20;99.90;;;;;;5023881;28;20060;-67
2023/03/04 04:21:21;;;;;;;14.73;2.20;;;;;;;;;;5026630;28;20479;-67
2023/03/04 04:23:47;;;;;;;8.63;2.58;;;;;;;;;;5009525;28;20452;-67
2023/03/04 04:26:13;;;;;;;9.82;2.60;;;6.30;99.90;;;;;;5022636;28;20056;-67
2023/03/04 04:28:39;;;;;;;9.68;2.58;;;;;;;;;;5027620;28;20045;-66
2023/03/04 04:31:08;;;;;;;9.95;2.17;;;;;;;;;;5026607;28;20049;-66
2023/03/04 04:33:35;;;;;;;11.18;2.55;;;;;;;;;;5025266;28;20231;-67
2023/03/04 04:36:02;;;;;;;10.82;3.38;;;6.20;99.90;;;;;;5024941;28;20052;-67
2023/03/04 04:38:28;;;;;;;10.50;2.42;;;;;;;;;;5027109;28;20037;-67
2023/03/04 04:40:56;;;;;;;13.57;2.40;;;;;;;;;;5008464;28;20411;-66
2023/03/04 04:43:22;;;;;;;12.48;2.25;;;;;;;;;;5027285;28;20045;-66
2023/03/04 04:45:48;;;;;;;11.68;2.47;;;;;;;;;;5009010;28;20045;-66
2023/03/04 04:48:14;;;;;;;9.80;1.92;;;;;;;;;;5009406;28;20060;-67
2023/03/04 04:50:40;;;;;;;11.13;2.47;;;;;;;;;;5025441;28;20057;-66
2023/03/04 04:53:06;;;;;;;11.07;2.80;;;;;;;;;;5007837;28;20060;-66
2023/03/04 04:55:33;;;;;;;10.23;3.60;;;;;;;;;;5020592;28;20091;-67
2023/03/04 04:57:59;;;;;;;7.90;2.10;;;;;;;;;;5004344;28;20042;-67
2023/03/04 05:00:25;;;;;;;11.30;2.60;;;;;;;;;;5024985;28;20720;-66
2023/03/04 05:02:51;;;;;;;9.27;1.85;;;5.90;99.90;;;;;;5022555;28;20052;-66
2023/03/04 05:05:17;;;;;;;8.45;2.88;;;;;;;;;;5007412;28;20152;-67
2023/03/04 05:07:43;;;;;;;11.40;2.58;;;;;;;;;;5023788;28;20611;-66
2023/03/04 05:10:10;;;;;;;13.73;2.45;;;;;;;;;;5005986;28;20124;-66
2023/03/04 05:12:36;;;;;;;6.30;2.03;;;;;;;;;;5026828;28;20098;-67
2023/03/04 05:15:02;;;;;;;10.15;2.58;;;6.20;99.90;;;;;;5026373;28;20466;-66
2023/03/04 05:17:28;;;;;;;8.65;2.67;;;;;;;;;;5008549;28;20048;-66
2023/03/04 05:19:54;;;;;;;14.02;2.70;;;;;;;;;;5008431;28;20795;-67
2023/03/04 05:22:20;;;;;;;12.15;1.77;;;;;;;;;;5021831;28;20042;-66
2023/03/04 05:24:46;;;;;;;9.40;1.70;;;;;;;;;;5024764;28;20038;-67
2023/03/04 05:27:12;;;;;;;11.90;1.92;;;;;;;;;;5008209;28;20592;-67
2023/03/04 05:29:38;;;;;;;6.28;2.10;;;;;;;;;;5026256;28;20037;-67
2023/03/04 05:32:04;;;;;;;7.50;1.92;;;;;;;;;;5008344;28;20053;-67
2023/03/04 05:34:30;;;;;;;8.23;1.98;;;;;;;;;;5026324;28;20545;-67
2023/03/04 05:36:56;;;;;;;8.35;2.28;;;;;;;;;;5025594;28;20045;-67
2023/03/04 05:39:22;;;;;;;11.32;2.25;;;;;;;;;;5008347;28;20821;-67
2023/03/04 05:41:47;;;;;;;10.88;2.35;;;6.10;99.90;;;;;;5021072;28;20042;-67
2023/03/04 05:44:13;;;;;;;6.03;1.73;;;;;;;;;;5002459;28;20698;-67
2023/03/04 05:46:39;;;;;;;7.25;1.52;;;;;;;;;;5007475;28;21663;-67
2023/03/04 05:49:05;;;;;;;6.20;1.67;;;;;;;;;;5022692;28;20037;-67
2023/03/04 05:51:31;;;;;;;6.38;1.60;;;;;;;;;;5002247;28;20229;-66
2023/03/04 05:53:57;;;;;;;5.03;1.58;;;;;;;;;;5026400;28;20807;-67
2023/03/04 05:56:23;;;;;;;6.50;1.90;;;6.10;99.90;;;;;;5026700;28;20069;-67
2023/03/04 05:58:49;;;;;;;11.55;1.92;;;;;;;;;;5008309;28;20103;-67
2023/03/04 06:01:15;;;;;;;11.10;2.42;;;;;;;;;;5024975;28;20045;-66
2023/03/04 06:03:47;;;;;;;8.07;1.63;;;;;;;;;;5025907;28;20056;-66
2023/03/04 06:06:13;;;;;;;12.75;2.75;;;;;;;;;;5007785;28;20057;-67
2023/03/04 06:08:39;;;;;;;8.05;1.63;;;;;;;;;;5025429;28;20115;-67
2023/03/04 06:11:05;;;;;;;4.38;2.03;;;;;;;;;;5007490;28;20403;-67
2023/03/04 06:13:32;;;;;;;6.60;2.13;;;;;;;;;;5007231;28;20076;-66
2023/03/04 06:15:58;;;;;;;10.95;2.05;;;5.90;99.90;;;;;;5025590;28;20052;-67
2023/03/04 06:18:25;;;;;;;5.88;1.70;;;;;;;;;;5020967;28;20590;-67
2023/03/04 06:20:55;;;;;;;2.45;1.48;;;;;;;;;;5005084;28;20045;-67
2023/03/04 06:23:21;;;;;;;5.63;2.17;;;;;;;;;;5025467;28;20116;-67
2023/03/04 06:25:50;;;;;;;4.72;1.67;;;;;;;;;;5024946;28;20055;-66
2023/03/04 06:28:16;;;;;;;7.00;2.35;;;;;;;;;;5000379;28;20162;-67
2023/03/04 06:30:42;;;;;;;9.27;2.22;;;;;;;;;;5004551;28;20462;-66
2023/03/04 06:33:08;;;;;;;7.95;1.90;;;;;;;;;;5013886;28;20080;-67
2023/03/04 06:35:34;;;;;;;5.43;1.98;;;6.00;99.90;;;;;;5015420;28;20037;-67
2023/03/04 06:38:00;;;;;;;4.65;2.50;;;;;;;;;;4995366;28;20128;-67
2023/03/04 06:40:25;;;;;;;5.05;2.28;;;;;;;;;;5003989;28;20095;-66
2023/03/04 06:42:51;;;;;;;5.28;1.90;;;;;;;;;;5007081;28;20406;-67
2023/03/04 06:45:17;;;;;;;7.78;2.15;;;;;;;;;;5007342;28;20045;-66
2023/03/04 06:47:43;;;;;;;12.30;4.10;;;;;;;;;;5007171;28;20124;-67
2023/03/04 06:50:11;;;;;;;7.38;1.92;;;;;;;;;;5006652;28;20128;-67
2023/03/04 06:52:37;;;;;;;6.85;2.10;;;;;;;;;;5006725;28;20061;-66
2023/03/04 06:55:03;;;;;;;8.73;2.30;;;;;;;;;;5005607;28;20054;-67
2023/03/04 06:57:29;;;;;;;9.70;2.47;;;;;;;;;;4990791;28;20133;-66
2023/03/04 06:59:55;;;;;;;10.80;3.65;;;;;;;;;;5023200;28;20047;-67
2023/03/04 07:02:21;;;;;;;6.03;1.95;;;;;;;;;;5006797;28;20037;-67
2023/03/04 07:04:47;;;;;;;5.65;1.85;;;;;;;;;;5005440;28;20553;-67
2023/03/04 07:07:13;;;;;;;11.68;2.67;;;;;;;;;;5025221;28;20137;-67
2023/03/04 07:09:39;;;;;;;7.78;1.80;;;;;;;;;;5024416;28;20080;-67
2023/03/04 07:12:05;;;;;;;9.27;2.40;;;;;;;;;;5006620;28;20128;-67
2023/03/04 07:14:31;;;;;;;9.23;2.00;;;;;;;;;;5008842;28;20049;-66
2023/03/04 07:16:57;;;;;;;5.85;2.42;;;;;;;;;;5010464;28;20072;-67
2023/03/04 07:19:23;;;;;;;4.10;1.92;;;;;;;;;;5011054;28;20042;-67
2023/03/04 07:21:49;;;;;;;7.85;1.85;;;;;;;;;;5028052;28;20043;-68
2023/03/04 07:24:16;;;;;;;6.30;1.90;;;;;;;;;;5022050;28;20498;-67
2023/03/04 07:26:41;;;;;;;5.57;2.83;;;;;;;;;;5011997;28;20063;-66
2023/03/04 07:29:07;;;;;;;10.35;2.10;;;;;;;;;;5025645;28;20042;-67
2023/03/04 07:31:34;;;;;;;6.53;2.80;;;;;;;;;;5008869;28;20045;-68
2023/03/04 07:34:02;;;;;;;5.82;1.92;;;;;;;;;;5010514;28;20045;-67
2023/03/04 07:36:28;;;;;;;4.97;1.10;;;;;;;;;;5012447;28;20045;-67
2023/03/04 07:38:54;;;;;;;8.82;1.77;;;;;;;;;;5007779;28;20080;-67
2023/03/04 07:41:21;;;;;;;9.48;1.58;;;;;;;;;;5024318;28;20039;-65
2023/03/04 07:43:47;;;;;;;7.65;2.30;;;;;;;;;;5003019;28;20059;-67
2023/03/04 07:46:13;;;;;;;8.35;2.03;;;;;;;;;;5011912;28;20406;-68
2023/03/04 07:48:39;;;;;;;6.53;1.42;;;;;;;;;;5006949;28;20052;-67
2023/03/04 07:51:13;;;;;;;9.10;1.83;;;;;;;;;;5027188;28;20061;-68
2023/03/04 07:53:40;;;;;;;3.45;1.33;;;6.70;99.90;;;;;;5000343;28;20849;-69
2023/03/04 07:56:07;;;;;;;9.63;1.90;;;;;;;;;;5028348;28;20041;-68
2023/03/04 07:58:33;;;;;;;10.10;1.95;;;;;;;;;;5007385;28;20051;-69
2023/03/04 08:00:59;;;;;;;8.13;2.05;;;;;;;;;;5007597;28;20044;-69
2023/03/04 08:03:25;;;;;;;7.40;1.73;;;;;;;;;;5028075;28;20029;-68
2023/03/04 08:05:51;;;;;;;9.23;1.73;;;;;;;;;;5028021;28;20045;-69
2023/03/04 08:08:17;;;;;;;3.05;1.60;;;;;;;;;;5025563;28;20159;-71
2023/03/04 08:10:43;;;;;;;7.50;1.88;;;;;;;;;;5007065;28;20047;-67
2023/03/04 08:13:09;;;;;;;11.45;2.25;;;;;;;;;;5028428;28;20041;-70
2023/03/04 08:15:39;;;;;;;7.57;1.73;;;;;;;;;;5011412;28;20056;-68
2023/03/04 08:18:05;;;;;;;5.93;1.75;;;;;;;;;;4996511;28;20049;-67
2023/03/04 08:20:31;;;;;;;5.03;1.52;;;;;;;;;;5029299;28;20038;-68
2023/03/04 08:22:57;;;;;;;5.25;1.55;;;;;;;;;;5029027;28;20124;-69
2023/03/04 08:25:23;;;;;;;7.80;1.58;;;;;;;;;;5010782;28;20049;-68
2023/03/04 08:27:49;;;;;;;7.63;1.80;;;;;;;;;;5026401;28;20041;-68
2023/03/04 08:30:15;;;;;;;8.93;2.08;;;;;;;;;;5027696;28;20515;-69
2023/03/04 08:32:41;;;;;;;7.63;2.35;;;;;;;;;;5009946;28;20068;-68
2023/03/04 08:35:07;;;;;;;8.88;2.47;;;;;;;;;;5027524;28;20037;-69
2023/03/04 08:37:33;;;;;;;10.75;1.92;;;;;;;;;;5009913;28;21006;-68
2023/03/04 08:39:58;;;;;;;8.40;1.63;;;7.40;99.90;;;;;;5027823;28;20034;-66
2023/03/04 08:42:24;;;;;;;11.40;2.22;;;;;;;;;;5028164;28;20462;-66
2023/03/04 08:44:50;;;;;;;11.00;2.70;;;;;;;;;;5027771;28;20041;-69
2023/03/04 08:47:16;;;;;;;17.17;2.08;;;;;;;;;;5026047;28;20049;-72
2023/03/04 08:49:42;;;;;;;14.75;3.90;;;7.50;99.90;;;;;;5023362;28;20391;-70
2023/03/04 08:52:08;;;;;;;13.88;2.40;;;;;;;;;;5010112;28;20064;-71
2023/03/04 08:54:34;;;;;;;16.80;2.60;;;;;;;;;;5011462;28;20446;-73
2023/03/04 08:57:00;;;;;;;13.48;3.00;;;;;;;;;;5009514;28;20514;-67
2023/03/04 08:59:26;;;;;;;12.35;2.70;;;;;;;;;;5005265;28;20156;-67
2023/03/04 09:01:52;;;;;;;16.80;2.65;;;;;;;;;;5026191;28;20099;-68
2023/03/04 09:04:18;;;;;;;14.75;3.08;;;;;;;;;;5008199;28;20434;-69
2023/03/04 09:06:44;;;;;;;14.80;3.58;;;;;;;;;;5008800;28;20045;-68
2023/03/04 09:09:10;;;;;;;15.23;2.90;;;;;;;;;;5025237;28;20045;-68
2023/03/04 09:11:36;;;;;;;14.27;2.95;;;;;;;;;;5008488;28;20046;-69
2023/03/04 09:14:02;;;;;;;11.02;2.83;;;;;;;;;;5024133;28;20041;-68
2023/03/04 09:16:28;;;;;;;12.02;2.42;;;;;;;;;;5007890;28;20056;-69
2023/03/04 09:18:54;;;;;;;10.27;2.25;;;;;;;;;;5025599;28;20135;-69
2023/03/04 09:21:20;;;;;;;7.95;3.08;;;;;;;;;;5008609;28;20037;-68
2023/03/04 09:23:46;;;;;;;6.78;1.67;;;;;;;;;;5024920;28;20918;-68
2023/03/04 09:26:20;;;;;;;9.48;2.70;;;;;;;;;;5008147;28;20151;-70
2023/03/04 09:28:49;;;;;;;10.05;2.60;;;;;;;;;;5025944;28;20041;-72
2023/03/04 09:31:15;;;;;;;14.85;2.10;;;;;;;;;;5008465;28;20049;-69
2023/03/04 09:33:42;;;;;;;10.85;2.72;;;;;;;;;;5007816;28;20045;-69
2023/03/04 09:36:09;;;;;;;12.90;2.90;;;;;;;;;;5024842;28;20712;-70
2023/03/04 09:38:37;;;;;;;14.98;2.70;;;;;;;;;;5022782;28;20041;-71
2023/03/04 09:41:05;;;;;;;18.52;3.10;;;;;;;;;;5005399;28;20045;-71
2023/03/04 09:43:32;;;;;;;13.07;2.90;;;7.40;99.90;;;;;;5026017;28;20045;-70
2023/03/04 09:46:00;;;;;;;12.50;2.78;;;;;;;;;;5007413;28;20499;-72
2023/03/04 09:48:28;;;;;;;17.13;2.88;;;;;;;;;;5005341;28;20098;-71
2023/03/04 09:51:16;;;;;;;13.95;2.72;;;7.80;99.90;;;;;;5022932;28;20518;-71
2023/03/04 09:53:57;;;;;;;12.23;3.20;;;7.80;99.90;;;;;;5024829;28;20434;-70
2023/03/04 09:56:24;;;;;;;19.05;3.20;;;;;;;;;;5025479;28;20045;-70
2023/03/04 09:58:57;;;;;;;18.20;2.85;;;;;;;;;;5003529;28;20056;-71
2023/03/04 10:01:29;;;;;;;18.08;3.05;;;;;;;;;;5006018;28;20068;-73
2023/03/04 10:04:01;;;;;;;13.80;2.90;;;;;;;;;;5007309;28;20124;-69
2023/03/04 10:06:27;;;;;;;15.23;2.75;;;;;;;;;;5006311;28;20156;-70
2023/03/04 10:08:56;;;;;;;16.48;2.38;;;;;;;;;;5003960;28;20053;-70
2023/03/04 10:11:39;;;;;;;11.68;2.55;;;;;;;;;;5006180;28;20044;-69
2023/03/04 10:14:17;;;;;;;14.10;2.83;;;;;;;;;;5024593;28;20056;-69
2023/03/04 10:16:48;;;;;;;20.30;3.15;;;;;;;;;;5006698;28;20075;-68
2023/03/04 10:19:14;;;;;;;25.00;4.05;;;7.60;99.90;;;;;;5017015;28;20061;-68
2023/03/04 10:21:50;;;;;;;17.95;3.17;;;7.50;99.90;;;;;;5010350;28;20076;-68
2023/03/04 10:24:17;;;;;;;14.60;2.67;;;;;;;;;;5022197;28;20056;-68
2023/03/04 10:26:45;;;;;;;15.80;2.97;;;7.60;99.90;;;;;;5008552;28;20099;-68
2023/03/04 10:29:16;;;;;;;14.38;2.83;;;;;;;;;;5009030;28;20041;-68
2023/03/04 10:31:42;;;;;;;12.27;2.90;;;;;;;;;;5011179;28;20077;-67
2023/03/04 10:34:11;;;;;;;10.77;2.17;;;7.90;99.90;;;;;;5032610;28;20206;-67
2023/03/04 10:36:47;;;;;;;12.63;2.95;;;;;;;;;;4997523;28;20075;-68
2023/03/04 10:39:18;;;;;;;6.55;1.77;;;;;;;;;;5010014;28;20045;-68
2023/03/04 10:41:52;;;;;;;13.50;2.25;;;7.90;99.90;;;;;;5008274;28;20379;-68
2023/03/04 10:44:18;;;;;;;11.15;2.33;;;;;;;;;;4992566;28;20041;-68
2023/03/04 10:46:46;;;;;;;8.90;2.17;;;8.50;99.90;;;;;;5013764;28;20049;-69
2023/03/04 10:49:16;;;;;;;9.63;1.75;;;;;;;;;;5027653;28;20033;-69
2023/03/04 10:51:44;;;;;;;5.30;1.77;;;;;;;;;;5028213;28;20877;-73
2023/03/04 10:54:19;;;;;;;7.55;2.22;;;8.90;99.90;;;;;;5010489;28;20034;-71
2023/03/04 10:56:53;;;;;;;6.97;1.50;;;;;;;;;;5011309;28;20066;-71
2023/03/04 10:59:30;;;;;;;5.68;1.85;;;8.60;99.90;;;;;;5011335;28;20049;-70
2023/03/04 11:01:56;;;;;;;6.50;1.80;;;;;;;;;;5025709;28;20037;-66
2023/03/04 11:04:24;;;;;;;9.77;1.80;;;;;;;;;;5013851;28;20048;-66
2023/03/04 11:06:50;;;;;;;8.07;2.13;;;8.60;99.90;;;;;;5028961;28;20067;-67
2023/03/04 11:09:30;;;;;;;8.05;2.15;;;8.40;99.90;;;;;;5011928;28;20096;-67
2023/03/04 11:12:00;;;;;;;6.95;2.10;;;8.30;99.90;;;;;;5028756;28;20052;-67
2023/03/04 11:14:28;;;;;;;10.27;2.05;;;;;;;;;;5028947;28;20061;-68
2023/03/04 11:16:56;;;;;;;11.80;2.33;;;;;;;;;;5010893;28;20060;-67
2023/03/04 11:19:24;;;;;;;9.48;2.38;;;;;;;;;;5012411;28;20063;-68
2023/03/04 11:21:51;;;;;;;11.00;1.92;;;8.00;99.90;;;;;;5028421;28;20038;-67
2023/03/04 11:24:25;;;;;;;6.00;1.52;;;;;;;;;;5010575;28;20042;-68
2023/03/04 11:27:07;;;;;;;7.82;1.58;;;8.10;99.90;;;;;;5009231;28;20037;-67
2023/03/04 11:29:36;;;;;;;10.57;2.28;;;;;;;;;;5005780;28;20406;-67
2023/03/04 11:32:12;;;;;;;8.70;2.08;;;;;;;;;;5008546;28;20060;-67
2023/03/04 11:34:42;;;;;;;14.52;2.10;;;;;;;;;;5010985;28;20049;-67
2023/03/04 11:37:20;;;;;;;11.18;2.63;;;;;;;;;;5027023;28;20046;-69
2023/03/04 11:39:59;;;;;;;8.40;1.98;;;;;;;;;;5005406;28;20060;-68
2023/03/04 11:42:33;;;;;;;12.23;2.85;;;;;;;;;;5008464;28;20049;-68
2023/03/04 11:44:59;;;;;;;12.10;3.00;;;;;;;;;;5009933;28;20064;-68
2023/03/04 11:47:25;;;;;;;10.20;2.65;;;;;;;;;;5012288;28;20056;-67
2023/03/04 11:49:56;;;;;;;13.57;2.97;;;9.50;99.90;;;;;;5009645;28;20049;-68
2023/03/04 11:52:42;;;;;;;13.27;2.55;;;;;;;;;;5026471;28;20064;-68
2023/03/04 11:55:10;;;;;;;13.45;2.75;;;;;;;;;;5018496;28;20041;-67
2023/03/04 11:57:45;;;;;;;12.13;2.53;;;;;;;;;;5027508;28;20041;-70
2023/03/04 12:00:30;;;;;;;11.93;2.63;;;;;;;;;;5008458;28;20042;-70
2023/03/04 12:03:04;;;;;;;14.10;2.75;;;;;;;;;;5028279;28;20045;-70
2023/03/04 12:05:36;;;;;;;10.65;2.05;;;;;;;;;;5012449;28;20491;-70
2023/03/04 12:08:24;;;;;;;6.85;1.80;;;;;;;;;;5009384;28;20052;-67
2023/03/04 12:10:53;;;;;;;11.35;2.45;;;;;;;;;;5010053;28;20052;-67
2023/03/04 12:13:30;;;;;;;10.00;2.42;;;;;;;;;;5014808;28;20096;-69
2023/03/04 12:15:59;;;;;;;14.65;2.47;;;;;;;;;;5009194;28;20128;-71
2023/03/04 12:18:42;;;;;;;10.82;2.40;;;9.50;99.90;;;;;;5009312;28;20103;-68
2023/03/04 12:21:19;;;;;;;10.25;2.00;;;;;;;;;;5018463;28;20050;-68
2023/03/04 12:23:56;;;;;;;12.77;2.95;;;;;;;;;;5009100;28;20122;-68
2023/03/04 12:26:38;;;;;;;11.60;2.80;;;9.20;99.90;;;;;;5009574;28;20041;-68
2023/03/04 12:29:13;;;;;;;19.70;3.15;;;8.90;99.90;;;;;;5027081;28;20052;-68
2023/03/04 12:31:43;;;;;;;18.45;2.50;;;;;;;;;;5009644;28;20045;-68
2023/03/04 12:34:09;;;;;;;10.10;2.50;;;;;;;;;;5007812;28;20603;-67
2023/03/04 12:36:35;;;;;;;17.17;2.72;;;;;;;;;;5027454;28;20053;-67
2023/03/04 12:39:04;;;;;;;16.15;3.10;;;;;;;;;;5005794;28;20132;-68
2023/03/04 12:41:33;;;;;;;25.38;6.25;;;;;;;;;;5024928;28;20156;-69
2023/03/04 12:43:59;;;;;;;17.30;3.88;;;;;;;;;;5008998;28;20045;-68
2023/03/04 12:46:31;;;;;;;10.48;2.55;;;;;;;;;;5027294;28;20045;-67
2023/03/04 12:49:09;;;;;;;8.68;2.00;;;;;;;;;;4993166;28;20049;-68
2023/03/04 12:51:53;;;;;;;8.23;2.85;;;9.00;99.90;;;;;;5025828;28;20057;-68
2023/03/04 12:54:24;;;;;;;14.80;2.95;;;;;;;;;;5009417;28;20072;-69
2023/03/04 12:56:50;;;;;;;12.57;2.28;;;;;;;;;;5008531;28;20060;-68
2023/03/04 12:59:19;;;;;;;9.75;2.53;;;8.80;99.90;;;;;;5007800;28;20045;-69
2023/03/04 13:01:59;;;;;;;8.65;2.03;;;;;;;;;;5014672;28;20052;-69
2023/03/04 13:04:28;;;;;;;15.32;2.65;;;8.60;99.90;;;;;;5008297;28;20049;-68
2023/03/04 13:07:31;;;;;;;14.20;2.58;;;8.50;99.90;;;;;;5026948;28;20049;-70
2023/03/04 13:10:00;;;;;;;15.15;3.50;;;;;;;;;;5008981;28;20076;-69
2023/03/04 13:12:26;;;;;;;13.02;3.30;;;;;;;;;;5008709;28;20128;-68
2023/03/04 13:15:07;;;;;;;16.88;3.35;;;8.30;99.90;;;;;;5026685;28;20045;-69
2023/03/04 13:17:53;;;;;;;19.23;3.65;;;;;;;;;;5004730;28;20124;-69
2023/03/04 13:20:25;;;;;;;19.73;3.35;;;;;;;;;;5004473;28;20081;-69
2023/03/04 13:22:56;;;;;;;21.38;4.00;;;8.30;99.90;;;;;;5026968;28;20045;-70
2023/03/04 13:25:30;;;;;;;18.85;3.63;;;;;;;;;;5008263;28;20041;-69
2023/03/04 13:28:01;;;;;;;15.60;2.87;;;;;;;;;;5009191;28;20829;-69
2023/03/04 13:30:30;;;;;;;12.75;2.83;;;;;;;;;;5008346;28;20073;-69
2023/03/04 13:33:02;;;;;;;20.67;3.50;;;;;;;;;;5013722;28;20567;-70
2023/03/04 13:35:50;;;;;;;21.00;4.40;;;8.60;99.90;;;;;;5020281;28;20120;-68
2023/03/04 13:38:29;;;;;;;13.18;2.95;;;8.60;99.90;;;;;;5023824;28;20045;-69
2023/03/04 13:41:04;;;;;;;12.65;3.22;;;;;;;;;;5025937;28;20112;-69
2023/03/04 13:43:43;;;;;;;15.77;3.70;;;8.70;99.90;;;;;;5008807;28;20808;-70
2023/03/04 13:46:15;;;;;;;24.80;9.63;;;;;;;;;;5008952;28;20103;-69
2023/03/04 13:48:42;;;;;;;22.95;7.60;;;;;;;;;;5005113;28;20107;-66
2023/03/04 13:51:17;;;;;;;19.33;7.30;;;;;;;;;;5009046;28;20061;-67
2023/03/04 13:53:54;;;;;;;15.23;8.40;;;8.80;99.90;;;;;;5025605;28;20107;-66
2023/03/04 13:56:22;;;;;;;27.45;12.95;;;;;;;;;;5008587;28;20041;-66
2023/03/04 13:58:49;;;;;;;13.68;4.65;;;;;;;;;;5005267;28;20041;-69
2023/03/04 14:01:29;;;;;;;22.45;11.02;;;;;;;;;;5024023;28;20076;-68
2023/03/04 14:03:55;;;;;;;11.15;3.15;;;;;;;;;;5025724;28;20131;-68
2023/03/04 14:06:25;;;;;;;13.88;2.95;;;;;;;;;;5005011;28;20045;-73
2023/03/04 14:08:52;;;;;;;92.07;47.55;;;;;;;;;;5007915;28;20529;-70
2023/03/04 14:11:27;;;;;;;93.13;43.50;;;;;;;;;;5025302;28;20030;-70
2023/03/04 14:13:53;;;;;;;11.07;4.15;;;;;;;;;;5025732;28;20045;-65
2023/03/04 14:16:25;;;;;;;16.83;2.95;;;;;;;;;;5021830;28;20042;-65
2023/03/04 14:19:07;;;;;;;19.13;3.35;;;;;;;;;;5024567;28;20037;-66
2023/03/04 14:21:35;;;;;;;10.20;2.33;;;8.60;99.90;;;;;;5008848;28;20487;-66